Flugplatz Torgau-Beilrode

Für EDOG sind keine METAR/TAF Berichte vorhanden.
Es werden die Flugwettermeldungen vom Flugplatz Holzdorf Airport in 23 km Entfernung angezeigt.

Bericht für ETSH

vom 25.10. um 15:20 UTC

Wind 3 kt aus 180°

Sichtweite 10 km oder mehr

aufgebrochene Bewölkung in 21000 ft

aufgelockert bewölkt in 24000 ft

Temperatur 11.0°C

Taupunkt 6.0°C

Luftfeuchtigkeit 71%

Luftdruck 1019 hPa

ETSH 251520Z 18003KT 9999 BKN210 SCT240 11/06 Q1019 BLU+BLU+

Prognose für ETSH

vom 25.10. um 13:23 UTC

Zwischen 14:00 UTC und 23:00 UTC

Wind 8 kt aus 210°

Sichtweite 10 km oder mehr

keine signifikanten Wettererscheinungen

gering bewölkt in 20000 ft

aufgebrochene Bewölkung in 23000 ft

TAF ETSH 251323Z 2514/2523 21008KT 9999 NSW FEW200 BKN230
Impressum